sensor_id;sensor_type;location;lat;lon;timestamp;P1;durP1;ratioP1;P2;durP2;ratioP2
79543;SDS011;68994;47.176;7.534;2023-08-01T00:00:08;5.18;;;3.20;;
79543;SDS011;68994;47.176;7.534;2023-08-01T00:02:36;5.07;;;3.05;;
79543;SDS011;68994;47.176;7.534;2023-08-01T00:05:04;5.28;;;3.10;;
79543;SDS011;68994;47.176;7.534;2023-08-01T00:07:31;6.45;;;3.10;;
79543;SDS011;68994;47.176;7.534;2023-08-01T00:09:57;5.70;;;3.08;;
79543;SDS011;68994;47.176;7.534;2023-08-01T00:12:24;8.43;;;3.90;;
79543;SDS011;68994;47.176;7.534;2023-08-01T00:14:51;5.85;;;2.85;;
79543;SDS011;68994;47.176;7.534;2023-08-01T00:17:17;5.10;;;3.15;;
79543;SDS011;68994;47.176;7.534;2023-08-01T00:19:45;8.80;;;4.20;;
79543;SDS011;68994;47.176;7.534;2023-08-01T00:22:12;6.07;;;2.92;;
79543;SDS011;68994;47.176;7.534;2023-08-01T00:24:38;5.10;;;3.22;;
79543;SDS011;68994;47.176;7.534;2023-08-01T00:27:05;6.35;;;3.60;;
79543;SDS011;68994;47.176;7.534;2023-08-01T00:29:34;5.68;;;2.78;;
79543;SDS011;68994;47.176;7.534;2023-08-01T00:32:01;4.78;;;2.83;;
79543;SDS011;68994;47.176;7.534;2023-08-01T00:34:27;5.53;;;3.28;;
79543;SDS011;68994;47.176;7.534;2023-08-01T00:36:55;5.13;;;3.05;;
79543;SDS011;68994;47.176;7.534;2023-08-01T00:39:22;5.72;;;3.20;;
79543;SDS011;68994;47.176;7.534;2023-08-01T00:41:49;5.75;;;2.97;;
79543;SDS011;68994;47.176;7.534;2023-08-01T00:44:15;5.90;;;3.13;;
79543;SDS011;68994;47.176;7.534;2023-08-01T00:46:42;11.10;;;3.45;;
79543;SDS011;68994;47.176;7.534;2023-08-01T00:49:08;5.85;;;3.60;;
79543;SDS011;68994;47.176;7.534;2023-08-01T00:51:35;5.40;;;3.13;;
79543;SDS011;68994;47.176;7.534;2023-08-01T00:54:03;5.65;;;2.97;;
79543;SDS011;68994;47.176;7.534;2023-08-01T00:56:30;5.53;;;3.33;;
79543;SDS011;68994;47.176;7.534;2023-08-01T00:58:57;6.80;;;2.92;;
79543;SDS011;68994;47.176;7.534;2023-08-01T01:01:23;4.82;;;3.10;;
79543;SDS011;68994;47.176;7.534;2023-08-01T01:03:50;5.05;;;3.15;;
79543;SDS011;68994;47.176;7.534;2023-08-01T01:06:18;5.60;;;3.20;;
79543;SDS011;68994;47.176;7.534;2023-08-01T01:08:47;6.15;;;2.83;;
79543;SDS011;68994;47.176;7.534;2023-08-01T01:11:15;5.63;;;2.85;;
79543;SDS011;68994;47.176;7.534;2023-08-01T01:13:42;6.78;;;3.28;;
79543;SDS011;68994;47.176;7.534;2023-08-01T01:16:09;9.45;;;3.42;;
79543;SDS011;68994;47.176;7.534;2023-08-01T01:18:35;5.10;;;3.25;;
79543;SDS011;68994;47.176;7.534;2023-08-01T01:21:03;6.35;;;2.97;;
79543;SDS011;68994;47.176;7.534;2023-08-01T01:23:44;5.53;;;3.17;;
79543;SDS011;68994;47.176;7.534;2023-08-01T01:28:38;5.72;;;2.90;;
79543;SDS011;68994;47.176;7.534;2023-08-01T01:31:07;6.72;;;3.25;;
79543;SDS011;68994;47.176;7.534;2023-08-01T01:33:33;5.45;;;2.92;;
79543;SDS011;68994;47.176;7.534;2023-08-01T01:36:00;5.43;;;2.85;;
79543;SDS011;68994;47.176;7.534;2023-08-01T01:38:29;5.53;;;3.10;;
79543;SDS011;68994;47.176;7.534;2023-08-01T01:40:55;5.60;;;3.03;;
79543;SDS011;68994;47.176;7.534;2023-08-01T01:43:22;4.55;;;2.83;;
79543;SDS011;68994;47.176;7.534;2023-08-01T01:45:49;4.43;;;2.47;;
79543;SDS011;68994;47.176;7.534;2023-08-01T01:48:15;5.00;;;2.60;;
79543;SDS011;68994;47.176;7.534;2023-08-01T01:50:42;5.70;;;3.00;;
79543;SDS011;68994;47.176;7.534;2023-08-01T01:53:09;5.22;;;2.80;;
79543;SDS011;68994;47.176;7.534;2023-08-01T01:55:36;5.63;;;2.92;;
79543;SDS011;68994;47.176;7.534;2023-08-01T01:58:03;6.38;;;3.35;;
79543;SDS011;68994;47.176;7.534;2023-08-01T02:02:57;4.57;;;2.80;;
79543;SDS011;68994;47.176;7.534;2023-08-01T02:05:24;6.40;;;3.00;;
79543;SDS011;68994;47.176;7.534;2023-08-01T02:07:50;6.88;;;3.22;;
79543;SDS011;68994;47.176;7.534;2023-08-01T02:10:17;5.07;;;2.95;;
79543;SDS011;68994;47.176;7.534;2023-08-01T02:12:45;5.40;;;2.83;;
79543;SDS011;68994;47.176;7.534;2023-08-01T02:15:11;6.93;;;3.50;;
79543;SDS011;68994;47.176;7.534;2023-08-01T02:17:38;7.45;;;3.50;;
79543;SDS011;68994;47.176;7.534;2023-08-01T02:20:05;4.60;;;3.05;;
79543;SDS011;68994;47.176;7.534;2023-08-01T02:22:33;6.45;;;3.40;;
79543;SDS011;68994;47.176;7.534;2023-08-01T02:24:59;5.47;;;3.17;;
79543;SDS011;68994;47.176;7.534;2023-08-01T02:27:26;4.65;;;2.80;;
79543;SDS011;68994;47.176;7.534;2023-08-01T02:29:54;5.57;;;2.88;;
79543;SDS011;68994;47.176;7.534;2023-08-01T02:32:20;6.05;;;3.03;;
79543;SDS011;68994;47.176;7.534;2023-08-01T02:34:47;6.28;;;2.63;;
79543;SDS011;68994;47.176;7.534;2023-08-01T02:37:14;6.13;;;2.95;;
79543;SDS011;68994;47.176;7.534;2023-08-01T02:39:40;6.00;;;3.47;;
79543;SDS011;68994;47.176;7.534;2023-08-01T02:42:07;6.13;;;2.75;;
79543;SDS011;68994;47.176;7.534;2023-08-01T02:44:34;4.55;;;2.80;;
79543;SDS011;68994;47.176;7.534;2023-08-01T02:47:02;4.97;;;2.95;;
79543;SDS011;68994;47.176;7.534;2023-08-01T02:49:28;5.95;;;2.60;;
79543;SDS011;68994;47.176;7.534;2023-08-01T02:51:55;5.68;;;2.65;;
79543;SDS011;68994;47.176;7.534;2023-08-01T02:54:21;5.57;;;2.83;;
79543;SDS011;68994;47.176;7.534;2023-08-01T02:56:48;4.72;;;2.42;;
79543;SDS011;68994;47.176;7.534;2023-08-01T02:59:15;5.18;;;2.65;;
79543;SDS011;68994;47.176;7.534;2023-08-01T03:01:43;6.32;;;2.60;;
79543;SDS011;68994;47.176;7.534;2023-08-01T03:04:11;5.03;;;2.40;;
79543;SDS011;68994;47.176;7.534;2023-08-01T03:06:37;5.05;;;2.40;;
79543;SDS011;68994;47.176;7.534;2023-08-01T03:09:04;5.22;;;3.15;;
79543;SDS011;68994;47.176;7.534;2023-08-01T03:11:32;6.00;;;2.40;;
79543;SDS011;68994;47.176;7.534;2023-08-01T03:13:59;7.60;;;2.35;;
79543;SDS011;68994;47.176;7.534;2023-08-01T03:16:26;5.15;;;3.13;;
79543;SDS011;68994;47.176;7.534;2023-08-01T03:18:52;6.97;;;3.05;;
79543;SDS011;68994;47.176;7.534;2023-08-01T03:21:20;5.50;;;2.33;;
79543;SDS011;68994;47.176;7.534;2023-08-01T03:23:47;6.03;;;2.70;;
79543;SDS011;68994;47.176;7.534;2023-08-01T03:26:13;3.72;;;2.33;;
79543;SDS011;68994;47.176;7.534;2023-08-01T03:31:08;5.28;;;2.47;;
79543;SDS011;68994;47.176;7.534;2023-08-01T03:33:34;6.70;;;2.30;;
79543;SDS011;68994;47.176;7.534;2023-08-01T03:36:02;4.20;;;2.60;;
79543;SDS011;68994;47.176;7.534;2023-08-01T03:38:30;3.55;;;2.08;;
79543;SDS011;68994;47.176;7.534;2023-08-01T03:40:57;5.13;;;2.30;;
79543;SDS011;68994;47.176;7.534;2023-08-01T03:43:23;4.53;;;2.60;;
79543;SDS011;68994;47.176;7.534;2023-08-01T03:45:51;7.43;;;2.97;;
79543;SDS011;68994;47.176;7.534;2023-08-01T03:48:17;3.97;;;2.22;;
79543;SDS011;68994;47.176;7.534;2023-08-01T03:50:44;4.57;;;2.80;;
79543;SDS011;68994;47.176;7.534;2023-08-01T03:53:10;4.03;;;2.40;;
79543;SDS011;68994;47.176;7.534;2023-08-01T03:55:38;4.88;;;2.53;;
79543;SDS011;68994;47.176;7.534;2023-08-01T03:58:05;4.38;;;2.95;;
79543;SDS011;68994;47.176;7.534;2023-08-01T04:00:32;3.85;;;2.40;;
79543;SDS011;68994;47.176;7.534;2023-08-01T04:02:59;4.53;;;2.28;;
79543;SDS011;68994;47.176;7.534;2023-08-01T04:05:25;6.43;;;2.58;;
79543;SDS011;68994;47.176;7.534;2023-08-01T04:07:52;6.63;;;2.40;;
79543;SDS011;68994;47.176;7.534;2023-08-01T04:10:20;3.53;;;2.22;;
79543;SDS011;68994;47.176;7.534;2023-08-01T04:12:48;4.70;;;2.60;;
79543;SDS011;68994;47.176;7.534;2023-08-01T04:15:15;5.20;;;2.67;;
79543;SDS011;68994;47.176;7.534;2023-08-01T04:17:41;4.55;;;2.10;;
79543;SDS011;68994;47.176;7.534;2023-08-01T04:20:08;4.78;;;2.50;;
79543;SDS011;68994;47.176;7.534;2023-08-01T04:22:35;7.85;;;2.83;;
79543;SDS011;68994;47.176;7.534;2023-08-01T04:25:02;4.65;;;2.47;;
79543;SDS011;68994;47.176;7.534;2023-08-01T04:27:29;3.83;;;2.53;;
79543;SDS011;68994;47.176;7.534;2023-08-01T04:29:57;5.90;;;2.30;;
79543;SDS011;68994;47.176;7.534;2023-08-01T04:32:24;4.95;;;2.22;;
79543;SDS011;68994;47.176;7.534;2023-08-01T04:34:50;3.85;;;2.35;;
79543;SDS011;68994;47.176;7.534;2023-08-01T04:37:17;5.00;;;2.83;;
79543;SDS011;68994;47.176;7.534;2023-08-01T04:39:45;4.60;;;2.42;;
79543;SDS011;68994;47.176;7.534;2023-08-01T04:42:12;4.60;;;2.42;;
79543;SDS011;68994;47.176;7.534;2023-08-01T04:44:39;4.07;;;2.38;;
79543;SDS011;68994;47.176;7.534;2023-08-01T04:47:06;4.43;;;2.20;;
79543;SDS011;68994;47.176;7.534;2023-08-01T04:49:33;5.80;;;2.25;;
79543;SDS011;68994;47.176;7.534;2023-08-01T04:52:00;4.88;;;2.58;;
79543;SDS011;68994;47.176;7.534;2023-08-01T04:54:27;4.22;;;2.60;;
79543;SDS011;68994;47.176;7.534;2023-08-01T04:56:53;5.38;;;2.78;;
79543;SDS011;68994;47.176;7.534;2023-08-01T04:59:20;6.57;;;2.50;;
79543;SDS011;68994;47.176;7.534;2023-08-01T05:01:46;5.93;;;2.80;;
79543;SDS011;68994;47.176;7.534;2023-08-01T05:04:14;4.68;;;2.83;;
79543;SDS011;68994;47.176;7.534;2023-08-01T05:06:41;5.47;;;2.45;;
79543;SDS011;68994;47.176;7.534;2023-08-01T05:09:07;5.43;;;2.47;;
79543;SDS011;68994;47.176;7.534;2023-08-01T05:11:34;3.70;;;2.58;;
79543;SDS011;68994;47.176;7.534;2023-08-01T05:14:01;4.63;;;2.30;;
79543;SDS011;68994;47.176;7.534;2023-08-01T05:16:28;4.18;;;2.85;;
79543;SDS011;68994;47.176;7.534;2023-08-01T05:18:54;5.93;;;2.75;;
79543;SDS011;68994;47.176;7.534;2023-08-01T05:21:22;4.63;;;2.30;;
79543;SDS011;68994;47.176;7.534;2023-08-01T05:23:49;4.32;;;2.40;;
79543;SDS011;68994;47.176;7.534;2023-08-01T05:26:15;6.75;;;2.60;;
79543;SDS011;68994;47.176;7.534;2023-08-01T05:28:42;5.60;;;2.90;;
79543;SDS011;68994;47.176;7.534;2023-08-01T05:31:08;4.38;;;2.45;;
79543;SDS011;68994;47.176;7.534;2023-08-01T05:33:35;3.33;;;2.22;;
79543;SDS011;68994;47.176;7.534;2023-08-01T05:36:02;5.80;;;2.25;;
79543;SDS011;68994;47.176;7.534;2023-08-01T05:38:30;8.18;;;2.85;;
79543;SDS011;68994;47.176;7.534;2023-08-01T05:40:56;7.70;;;2.95;;
79543;SDS011;68994;47.176;7.534;2023-08-01T05:43:23;5.32;;;2.22;;
79543;SDS011;68994;47.176;7.534;2023-08-01T05:45:50;4.55;;;2.72;;
79543;SDS011;68994;47.176;7.534;2023-08-01T05:48:16;5.22;;;2.75;;
79543;SDS011;68994;47.176;7.534;2023-08-01T05:50:43;5.38;;;2.58;;
79543;SDS011;68994;47.176;7.534;2023-08-01T05:53:09;5.20;;;2.45;;
79543;SDS011;68994;47.176;7.534;2023-08-01T05:55:37;5.18;;;2.30;;
79543;SDS011;68994;47.176;7.534;2023-08-01T05:58:04;7.18;;;2.50;;
79543;SDS011;68994;47.176;7.534;2023-08-01T06:00:30;6.32;;;2.97;;
79543;SDS011;68994;47.176;7.534;2023-08-01T06:02:57;4.97;;;2.60;;
79543;SDS011;68994;47.176;7.534;2023-08-01T06:05:25;6.68;;;3.15;;
79543;SDS011;68994;47.176;7.534;2023-08-01T06:07:52;5.85;;;2.63;;
79543;SDS011;68994;47.176;7.534;2023-08-01T06:10:18;5.00;;;3.22;;
79543;SDS011;68994;47.176;7.534;2023-08-01T06:12:46;5.10;;;2.83;;
79543;SDS011;68994;47.176;7.534;2023-08-01T06:15:13;5.75;;;2.72;;
79543;SDS011;68994;47.176;7.534;2023-08-01T06:17:40;8.43;;;3.20;;
79543;SDS011;68994;47.176;7.534;2023-08-01T06:20:06;5.68;;;2.97;;
79543;SDS011;68994;47.176;7.534;2023-08-01T06:22:34;5.72;;;3.03;;
79543;SDS011;68994;47.176;7.534;2023-08-01T06:25:00;4.97;;;2.72;;
79543;SDS011;68994;47.176;7.534;2023-08-01T06:27:27;5.20;;;2.97;;
79543;SDS011;68994;47.176;7.534;2023-08-01T06:29:55;5.30;;;3.05;;
79543;SDS011;68994;47.176;7.534;2023-08-01T06:32:21;6.03;;;3.30;;
79543;SDS011;68994;47.176;7.534;2023-08-01T06:34:48;8.30;;;3.00;;
79543;SDS011;68994;47.176;7.534;2023-08-01T06:37:14;7.30;;;3.30;;
79543;SDS011;68994;47.176;7.534;2023-08-01T06:39:41;8.10;;;3.67;;
79543;SDS011;68994;47.176;7.534;2023-08-01T06:42:08;5.93;;;3.47;;
79543;SDS011;68994;47.176;7.534;2023-08-01T06:44:34;8.63;;;3.60;;
79543;SDS011;68994;47.176;7.534;2023-08-01T06:47:02;5.35;;;3.40;;
79543;SDS011;68994;47.176;7.534;2023-08-01T06:49:29;7.65;;;3.30;;
79543;SDS011;68994;47.176;7.534;2023-08-01T06:51:56;6.38;;;3.47;;
79543;SDS011;68994;47.176;7.534;2023-08-01T06:54:22;5.60;;;3.10;;
79543;SDS011;68994;47.176;7.534;2023-08-01T06:56:49;5.93;;;3.22;;
79543;SDS011;68994;47.176;7.534;2023-08-01T06:59:16;5.18;;;3.58;;
79543;SDS011;68994;47.176;7.534;2023-08-01T07:01:42;7.00;;;3.20;;
79543;SDS011;68994;47.176;7.534;2023-08-01T07:04:11;5.57;;;2.83;;
79543;SDS011;68994;47.176;7.534;2023-08-01T07:06:37;7.05;;;3.60;;
79543;SDS011;68994;47.176;7.534;2023-08-01T07:09:04;5.03;;;3.33;;
79543;SDS011;68994;47.176;7.534;2023-08-01T07:11:31;5.88;;;4.28;;
79543;SDS011;68994;47.176;7.534;2023-08-01T07:13:57;6.30;;;2.88;;
79543;SDS011;68994;47.176;7.534;2023-08-01T07:16:24;4.90;;;3.10;;
79543;SDS011;68994;47.176;7.534;2023-08-01T07:18:51;6.55;;;3.28;;
79543;SDS011;68994;47.176;7.534;2023-08-01T07:21:19;5.55;;;2.67;;
79543;SDS011;68994;47.176;7.534;2023-08-01T07:23:45;6.13;;;3.22;;
79543;SDS011;68994;47.176;7.534;2023-08-01T07:26:13;4.88;;;3.38;;
79543;SDS011;68994;47.176;7.534;2023-08-01T07:28:40;7.28;;;3.33;;
79543;SDS011;68994;47.176;7.534;2023-08-01T07:31:06;6.55;;;3.58;;
79543;SDS011;68994;47.176;7.534;2023-08-01T07:33:33;8.98;;;3.70;;
79543;SDS011;68994;47.176;7.534;2023-08-01T07:36:01;6.63;;;3.65;;
79543;SDS011;68994;47.176;7.534;2023-08-01T07:38:29;7.40;;;3.72;;
79543;SDS011;68994;47.176;7.534;2023-08-01T07:40:56;6.28;;;3.70;;
79543;SDS011;68994;47.176;7.534;2023-08-01T07:43:25;7.43;;;3.33;;
79543;SDS011;68994;47.176;7.534;2023-08-01T07:45:54;6.55;;;2.80;;
79543;SDS011;68994;47.176;7.534;2023-08-01T07:48:22;6.43;;;3.20;;
79543;SDS011;68994;47.176;7.534;2023-08-01T07:50:48;4.75;;;3.10;;
79543;SDS011;68994;47.176;7.534;2023-08-01T07:53:15;5.28;;;2.85;;
79543;SDS011;68994;47.176;7.534;2023-08-01T07:55:43;4.93;;;3.28;;
79543;SDS011;68994;47.176;7.534;2023-08-01T07:58:09;6.43;;;3.72;;
79543;SDS011;68994;47.176;7.534;2023-08-01T08:00:36;7.03;;;3.42;;
79543;SDS011;68994;47.176;7.534;2023-08-01T08:03:02;5.70;;;3.33;;
79543;SDS011;68994;47.176;7.534;2023-08-01T08:05:30;5.22;;;3.22;;
79543;SDS011;68994;47.176;7.534;2023-08-01T08:07:57;6.45;;;3.13;;
79543;SDS011;68994;47.176;7.534;2023-08-01T08:10:23;7.15;;;3.13;;
79543;SDS011;68994;47.176;7.534;2023-08-01T08:12:51;4.28;;;2.63;;
79543;SDS011;68994;47.176;7.534;2023-08-01T08:15:18;5.05;;;3.17;;
79543;SDS011;68994;47.176;7.534;2023-08-01T08:20:12;6.97;;;3.53;;
79543;SDS011;68994;47.176;7.534;2023-08-01T08:22:39;6.82;;;3.35;;
79543;SDS011;68994;47.176;7.534;2023-08-01T08:25:05;7.38;;;4.18;;
79543;SDS011;68994;47.176;7.534;2023-08-01T08:27:32;6.00;;;3.40;;
79543;SDS011;68994;47.176;7.534;2023-08-01T08:30:00;6.20;;;3.55;;
79543;SDS011;68994;47.176;7.534;2023-08-01T08:32:27;5.65;;;2.95;;
79543;SDS011;68994;47.176;7.534;2023-08-01T08:34:54;6.38;;;3.58;;
79543;SDS011;68994;47.176;7.534;2023-08-01T08:37:20;6.43;;;3.60;;
79543;SDS011;68994;47.176;7.534;2023-08-01T08:39:47;7.88;;;3.22;;
79543;SDS011;68994;47.176;7.534;2023-08-01T08:42:13;8.02;;;3.38;;
79543;SDS011;68994;47.176;7.534;2023-08-01T08:44:43;5.82;;;3.35;;
79543;SDS011;68994;47.176;7.534;2023-08-01T08:47:16;6.95;;;3.70;;
79543;SDS011;68994;47.176;7.534;2023-08-01T08:49:43;7.15;;;3.85;;
79543;SDS011;68994;47.176;7.534;2023-08-01T08:52:11;9.25;;;4.70;;
79543;SDS011;68994;47.176;7.534;2023-08-01T08:54:39;8.32;;;4.03;;
79543;SDS011;68994;47.176;7.534;2023-08-01T08:57:06;5.43;;;3.03;;
79543;SDS011;68994;47.176;7.534;2023-08-01T08:59:33;7.05;;;3.58;;
79543;SDS011;68994;47.176;7.534;2023-08-01T09:02:00;7.38;;;4.05;;
79543;SDS011;68994;47.176;7.534;2023-08-01T09:04:30;5.18;;;3.70;;
79543;SDS011;68994;47.176;7.534;2023-08-01T09:06:58;7.68;;;3.97;;
79543;SDS011;68994;47.176;7.534;2023-08-01T09:09:27;6.00;;;3.53;;
79543;SDS011;68994;47.176;7.534;2023-08-01T09:11:54;6.47;;;3.75;;
79543;SDS011;68994;47.176;7.534;2023-08-01T09:14:21;6.57;;;3.22;;
79543;SDS011;68994;47.176;7.534;2023-08-01T09:16:48;7.13;;;3.53;;
79543;SDS011;68994;47.176;7.534;2023-08-01T09:19:16;6.38;;;2.78;;
79543;SDS011;68994;47.176;7.534;2023-08-01T09:21:45;6.05;;;3.08;;
79543;SDS011;68994;47.176;7.534;2023-08-01T09:24:13;5.97;;;3.53;;
79543;SDS011;68994;47.176;7.534;2023-08-01T09:26:41;6.88;;;3.40;;
79543;SDS011;68994;47.176;7.534;2023-08-01T09:29:07;6.88;;;3.55;;
79543;SDS011;68994;47.176;7.534;2023-08-01T09:31:35;5.82;;;3.60;;
79543;SDS011;68994;47.176;7.534;2023-08-01T09:34:03;4.47;;;3.03;;
79543;SDS011;68994;47.176;7.534;2023-08-01T09:36:31;6.15;;;3.30;;
79543;SDS011;68994;47.176;7.534;2023-08-01T09:39:00;5.18;;;3.22;;
79543;SDS011;68994;47.176;7.534;2023-08-01T09:41:28;5.35;;;2.90;;
79543;SDS011;68994;47.176;7.534;2023-08-01T09:43:55;5.55;;;3.15;;
79543;SDS011;68994;47.176;7.534;2023-08-01T09:46:22;5.75;;;3.25;;
79543;SDS011;68994;47.176;7.534;2023-08-01T09:48:49;5.82;;;3.40;;
79543;SDS011;68994;47.176;7.534;2023-08-01T09:51:16;7.30;;;3.40;;
79543;SDS011;68994;47.176;7.534;2023-08-01T09:53:47;7.53;;;3.58;;
79543;SDS011;68994;47.176;7.534;2023-08-01T09:56:17;5.20;;;3.15;;
79543;SDS011;68994;47.176;7.534;2023-08-01T09:58:45;8.20;;;3.90;;
79543;SDS011;68994;47.176;7.534;2023-08-01T10:01:12;4.25;;;2.38;;
79543;SDS011;68994;47.176;7.534;2023-08-01T10:03:40;5.30;;;3.22;;
79543;SDS011;68994;47.176;7.534;2023-08-01T10:06:11;7.47;;;2.90;;
79543;SDS011;68994;47.176;7.534;2023-08-01T10:08:43;5.07;;;2.90;;
79543;SDS011;68994;47.176;7.534;2023-08-01T10:11:11;5.45;;;2.75;;
79543;SDS011;68994;47.176;7.534;2023-08-01T10:13:39;3.53;;;2.35;;
79543;SDS011;68994;47.176;7.534;2023-08-01T10:16:08;4.43;;;2.22;;
79543;SDS011;68994;47.176;7.534;2023-08-01T10:18:35;4.45;;;3.10;;
79543;SDS011;68994;47.176;7.534;2023-08-01T10:21:03;4.10;;;2.10;;
79543;SDS011;68994;47.176;7.534;2023-08-01T10:23:31;4.70;;;2.33;;
79543;SDS011;68994;47.176;7.534;2023-08-01T10:25:59;4.72;;;2.60;;
79543;SDS011;68994;47.176;7.534;2023-08-01T10:28:33;4.45;;;2.60;;
79543;SDS011;68994;47.176;7.534;2023-08-01T10:31:08;3.33;;;2.00;;
79543;SDS011;68994;47.176;7.534;2023-08-01T10:33:36;4.65;;;2.50;;
79543;SDS011;68994;47.176;7.534;2023-08-01T10:36:11;3.38;;;2.05;;
79543;SDS011;68994;47.176;7.534;2023-08-01T10:38:44;3.88;;;2.83;;
79543;SDS011;68994;47.176;7.534;2023-08-01T10:41:17;4.95;;;2.63;;
79543;SDS011;68994;47.176;7.534;2023-08-01T10:43:45;3.42;;;2.17;;
79543;SDS011;68994;47.176;7.534;2023-08-01T10:46:13;4.40;;;2.30;;
79543;SDS011;68994;47.176;7.534;2023-08-01T10:48:47;4.47;;;2.58;;
79543;SDS011;68994;47.176;7.534;2023-08-01T10:51:14;4.68;;;3.05;;
79543;SDS011;68994;47.176;7.534;2023-08-01T10:53:41;6.38;;;2.78;;
79543;SDS011;68994;47.176;7.534;2023-08-01T10:56:08;5.93;;;2.55;;
79543;SDS011;68994;47.176;7.534;2023-08-01T10:58:41;7.40;;;2.53;;
79543;SDS011;68994;47.176;7.534;2023-08-01T11:01:07;4.18;;;2.47;;
79543;SDS011;68994;47.176;7.534;2023-08-01T11:03:36;3.75;;;2.42;;
79543;SDS011;68994;47.176;7.534;2023-08-01T11:06:03;4.38;;;2.67;;
79543;SDS011;68994;47.176;7.534;2023-08-01T11:08:34;3.72;;;2.58;;
79543;SDS011;68994;47.176;7.534;2023-08-01T11:11:02;6.20;;;2.22;;
79543;SDS011;68994;47.176;7.534;2023-08-01T11:13:30;3.10;;;1.50;;
79543;SDS011;68994;47.176;7.534;2023-08-01T11:15:59;3.45;;;1.63;;
79543;SDS011;68994;47.176;7.534;2023-08-01T11:20:55;3.67;;;1.70;;
79543;SDS011;68994;47.176;7.534;2023-08-01T11:23:27;2.05;;;1.15;;
79543;SDS011;68994;47.176;7.534;2023-08-01T11:25:54;2.17;;;1.05;;
79543;SDS011;68994;47.176;7.534;2023-08-01T11:28:21;2.80;;;1.00;;
79543;SDS011;68994;47.176;7.534;2023-08-01T11:30:49;1.90;;;0.93;;
79543;SDS011;68994;47.176;7.534;2023-08-01T11:33:16;1.73;;;1.20;;
79543;SDS011;68994;47.176;7.534;2023-08-01T11:35:45;4.63;;;1.35;;
79543;SDS011;68994;47.176;7.534;2023-08-01T11:38:13;1.98;;;1.20;;
79543;SDS011;68994;47.176;7.534;2023-08-01T11:40:40;3.78;;;1.23;;
79543;SDS011;68994;47.176;7.534;2023-08-01T11:43:07;2.08;;;1.00;;
79543;SDS011;68994;47.176;7.534;2023-08-01T11:45:34;3.38;;;1.70;;
79543;SDS011;68994;47.176;7.534;2023-08-01T11:48:01;3.17;;;1.02;;
79543;SDS011;68994;47.176;7.534;2023-08-01T11:50:28;1.80;;;0.93;;
79543;SDS011;68994;47.176;7.534;2023-08-01T11:52:54;2.33;;;1.20;;
79543;SDS011;68994;47.176;7.534;2023-08-01T11:55:23;1.65;;;0.95;;
79543;SDS011;68994;47.176;7.534;2023-08-01T11:57:54;1.88;;;1.13;;
79543;SDS011;68994;47.176;7.534;2023-08-01T12:00:21;3.50;;;1.05;;
79543;SDS011;68994;47.176;7.534;2023-08-01T12:05:21;2.45;;;0.88;;
79543;SDS011;68994;47.176;7.534;2023-08-01T12:07:48;3.83;;;1.40;;
79543;SDS011;68994;47.176;7.534;2023-08-01T12:10:15;2.55;;;1.20;;
79543;SDS011;68994;47.176;7.534;2023-08-01T12:12:45;2.85;;;1.33;;
79543;SDS011;68994;47.176;7.534;2023-08-01T12:15:13;4.05;;;1.23;;
79543;SDS011;68994;47.176;7.534;2023-08-01T12:20:07;2.35;;;1.52;;
79543;SDS011;68994;47.176;7.534;2023-08-01T12:22:34;2.90;;;1.77;;
79543;SDS011;68994;47.176;7.534;2023-08-01T12:25:00;4.88;;;2.00;;
79543;SDS011;68994;47.176;7.534;2023-08-01T12:27:27;6.28;;;1.83;;
79543;SDS011;68994;47.176;7.534;2023-08-01T12:29:55;4.10;;;1.83;;
79543;SDS011;68994;47.176;7.534;2023-08-01T12:32:22;3.63;;;2.25;;
79543;SDS011;68994;47.176;7.534;2023-08-01T12:34:48;4.60;;;2.30;;
79543;SDS011;68994;47.176;7.534;2023-08-01T12:37:15;3.20;;;1.90;;
79543;SDS011;68994;47.176;7.534;2023-08-01T12:39:41;4.90;;;1.88;;
79543;SDS011;68994;47.176;7.534;2023-08-01T12:42:08;5.57;;;2.17;;
79543;SDS011;68994;47.176;7.534;2023-08-01T12:44:34;5.30;;;1.50;;
79543;SDS011;68994;47.176;7.534;2023-08-01T12:47:02;2.22;;;1.40;;
79543;SDS011;68994;47.176;7.534;2023-08-01T12:49:29;2.80;;;1.20;;
79543;SDS011;68994;47.176;7.534;2023-08-01T12:51:56;2.85;;;1.73;;
79543;SDS011;68994;47.176;7.534;2023-08-01T12:54:22;3.75;;;1.50;;
79543;SDS011;68994;47.176;7.534;2023-08-01T12:56:49;4.28;;;1.60;;
79543;SDS011;68994;47.176;7.534;2023-08-01T12:59:16;2.55;;;1.50;;
79543;SDS011;68994;47.176;7.534;2023-08-01T13:01:42;2.85;;;2.40;;
79543;SDS011;68994;47.176;7.534;2023-08-01T13:04:10;3.40;;;1.98;;
79543;SDS011;68994;47.176;7.534;2023-08-01T13:06:37;4.18;;;1.88;;
79543;SDS011;68994;47.176;7.534;2023-08-01T13:09:03;2.85;;;2.40;;
79543;SDS011;68994;47.176;7.534;2023-08-01T13:11:30;2.92;;;1.95;;
79543;SDS011;68994;47.176;7.534;2023-08-01T13:13:56;3.15;;;1.83;;
79543;SDS011;68994;47.176;7.534;2023-08-01T13:16:23;3.67;;;1.98;;
79543;SDS011;68994;47.176;7.534;2023-08-01T13:18:50;2.75;;;1.63;;
79543;SDS011;68994;47.176;7.534;2023-08-01T13:21:18;2.95;;;1.70;;
79543;SDS011;68994;47.176;7.534;2023-08-01T13:23:45;3.08;;;1.67;;
79543;SDS011;68994;47.176;7.534;2023-08-01T13:26:11;3.35;;;2.03;;
79543;SDS011;68994;47.176;7.534;2023-08-01T13:28:38;3.58;;;1.75;;
79543;SDS011;68994;47.176;7.534;2023-08-01T13:31:05;3.30;;;1.90;;
79543;SDS011;68994;47.176;7.534;2023-08-01T13:33:31;3.00;;;1.77;;
79543;SDS011;68994;47.176;7.534;2023-08-01T13:35:58;4.30;;;2.03;;
79543;SDS011;68994;47.176;7.534;2023-08-01T13:38:26;2.72;;;1.85;;
79543;SDS011;68994;47.176;7.534;2023-08-01T13:40:52;3.60;;;2.05;;
79543;SDS011;68994;47.176;7.534;2023-08-01T13:43:19;3.90;;;2.05;;
79543;SDS011;68994;47.176;7.534;2023-08-01T13:45:46;4.13;;;2.95;;
79543;SDS011;68994;47.176;7.534;2023-08-01T13:48:12;4.43;;;2.35;;
79543;SDS011;68994;47.176;7.534;2023-08-01T13:50:39;3.50;;;2.45;;
79543;SDS011;68994;47.176;7.534;2023-08-01T13:53:05;6.47;;;2.53;;
79543;SDS011;68994;47.176;7.534;2023-08-01T13:55:36;4.03;;;2.00;;
79543;SDS011;68994;47.176;7.534;2023-08-01T13:58:03;4.85;;;2.22;;
79543;SDS011;68994;47.176;7.534;2023-08-01T14:00:30;6.18;;;2.15;;
79543;SDS011;68994;47.176;7.534;2023-08-01T14:02:57;3.80;;;2.38;;
79543;SDS011;68994;47.176;7.534;2023-08-01T14:05:25;6.32;;;2.38;;
79543;SDS011;68994;47.176;7.534;2023-08-01T14:07:52;3.92;;;2.22;;
79543;SDS011;68994;47.176;7.534;2023-08-01T14:10:18;4.93;;;2.63;;
79543;SDS011;68994;47.176;7.534;2023-08-01T14:12:48;5.50;;;2.40;;
79543;SDS011;68994;47.176;7.534;2023-08-01T14:15:15;4.32;;;2.60;;
79543;SDS011;68994;47.176;7.534;2023-08-01T14:17:41;3.85;;;2.13;;
79543;SDS011;68994;47.176;7.534;2023-08-01T14:20:08;3.67;;;2.10;;
79543;SDS011;68994;47.176;7.534;2023-08-01T14:22:35;4.07;;;2.05;;
79543;SDS011;68994;47.176;7.534;2023-08-01T14:25:01;3.95;;;2.15;;
79543;SDS011;68994;47.176;7.534;2023-08-01T14:27:28;4.13;;;1.95;;
79543;SDS011;68994;47.176;7.534;2023-08-01T14:29:56;3.90;;;1.77;;
79543;SDS011;68994;47.176;7.534;2023-08-01T14:32:23;3.00;;;1.88;;
79543;SDS011;68994;47.176;7.534;2023-08-01T14:34:49;3.13;;;2.05;;
79543;SDS011;68994;47.176;7.534;2023-08-01T14:37:16;5.50;;;2.25;;
79543;SDS011;68994;47.176;7.534;2023-08-01T14:39:42;4.10;;;2.10;;
79543;SDS011;68994;47.176;7.534;2023-08-01T14:42:09;2.22;;;1.38;;
79543;SDS011;68994;47.176;7.534;2023-08-01T14:44:36;2.58;;;1.40;;
79543;SDS011;68994;47.176;7.534;2023-08-01T14:47:04;2.67;;;1.48;;
79543;SDS011;68994;47.176;7.534;2023-08-01T14:49:31;4.95;;;1.95;;
79543;SDS011;68994;47.176;7.534;2023-08-01T14:51:58;3.30;;;2.38;;
79543;SDS011;68994;47.176;7.534;2023-08-01T14:54:24;3.28;;;1.90;;
79543;SDS011;68994;47.176;7.534;2023-08-01T14:56:51;3.10;;;1.77;;
79543;SDS011;68994;47.176;7.534;2023-08-01T14:59:18;2.40;;;1.30;;
79543;SDS011;68994;47.176;7.534;2023-08-01T15:01:44;2.90;;;1.60;;
79543;SDS011;68994;47.176;7.534;2023-08-01T15:04:12;4.10;;;1.92;;